createdAt,value
2018-07-30T00:01:32.125Z,65.04
2018-07-30T00:04:00.682Z,65.07
2018-07-30T00:06:30.014Z,64.68
2018-07-30T00:08:59.406Z,64.61
2018-07-30T00:11:28.331Z,66.00
2018-07-30T00:13:56.904Z,65.54
2018-07-30T00:16:25.501Z,66.20
2018-07-30T00:18:54.081Z,65.62
2018-07-30T00:21:22.652Z,65.71
2018-07-30T00:23:51.236Z,65.90
2018-07-30T00:26:20.348Z,65.65
2018-07-30T00:28:48.940Z,65.89
2018-07-30T00:31:17.779Z,65.86
2018-07-30T00:33:46.418Z,65.77
2018-07-30T00:36:15.021Z,65.25
2018-07-30T00:38:43.608Z,65.23
2018-07-30T00:41:12.387Z,65.50
2018-07-30T00:43:41.160Z,65.68
2018-07-30T00:46:09.770Z,65.80
2018-07-30T00:48:38.407Z,65.93
2018-07-30T00:51:07.122Z,66.29
2018-07-30T00:53:35.680Z,66.12
2018-07-30T00:56:04.381Z,65.69
2018-07-30T00:58:33.024Z,65.91
2018-07-30T01:01:01.640Z,65.70
2018-07-30T01:03:30.216Z,66.10
2018-07-30T01:05:58.804Z,66.50
2018-07-30T01:08:27.432Z,66.41
2018-07-30T01:10:55.981Z,65.96
2018-07-30T01:16:14.611Z,66.92
2018-07-30T01:18:43.184Z,67.21
2018-07-30T01:21:12.625Z,67.30
2018-07-30T01:23:41.320Z,66.85
2018-07-30T01:26:15.000Z,67.50
2018-07-30T01:28:43.621Z,67.11
2018-07-30T01:31:12.572Z,66.51
2018-07-30T01:33:41.235Z,66.59
2018-07-30T01:36:09.809Z,66.55
2018-07-30T01:38:38.573Z,65.65
2018-07-30T01:41:07.201Z,65.86
2018-07-30T01:43:35.781Z,66.15
2018-07-30T01:46:05.164Z,66.34
2018-07-30T01:48:33.773Z,65.96
2018-07-30T01:51:02.360Z,66.46
2018-07-30T01:53:31.223Z,66.30
2018-07-30T01:56:00.181Z,66.50
2018-07-30T01:58:28.794Z,66.06
2018-07-30T02:00:57.380Z,66.17
2018-07-30T02:03:26.188Z,66.73
2018-07-30T02:05:55.985Z,67.02
2018-07-30T02:08:25.532Z,68.15
2018-07-30T02:10:54.105Z,68.00
2018-07-30T02:13:22.657Z,68.73
2018-07-30T02:15:51.334Z,69.41
2018-07-30T02:18:19.993Z,69.19
2018-07-30T02:20:48.600Z,69.10
2018-07-30T02:23:17.211Z,69.77
2018-07-30T02:25:45.978Z,70.16
2018-07-30T02:28:14.661Z,69.95
2018-07-30T02:30:43.461Z,70.21
2018-07-30T02:33:12.095Z,70.84
2018-07-30T02:35:41.772Z,70.97
2018-07-30T02:38:10.480Z,70.89
2018-07-30T02:40:39.229Z,71.41
2018-07-30T02:43:07.800Z,71.17
2018-07-30T02:45:36.516Z,70.73
2018-07-30T02:48:05.144Z,70.94
2018-07-30T02:50:33.780Z,70.05
2018-07-30T02:53:02.393Z,69.72
2018-07-30T02:55:31.047Z,70.13
2018-07-30T02:57:59.631Z,70.35
2018-07-30T03:00:28.284Z,70.34
2018-07-30T03:02:56.901Z,68.75
2018-07-30T03:05:25.649Z,68.79
2018-07-30T03:07:54.260Z,68.91
2018-07-30T03:10:22.972Z,69.01
2018-07-30T03:12:51.564Z,68.36
2018-07-30T03:15:20.287Z,68.41
2018-07-30T03:17:48.939Z,68.47
2018-07-30T03:20:17.569Z,68.04
2018-07-30T03:22:46.145Z,68.17
2018-07-30T03:25:14.779Z,68.39
2018-07-30T03:27:43.343Z,68.76
2018-07-30T03:30:12.298Z,68.44
2018-07-30T03:32:41.184Z,68.65
2018-07-30T03:35:09.823Z,69.05
2018-07-30T03:37:38.465Z,68.41
2018-07-30T03:40:07.563Z,68.69
2018-07-30T03:42:36.123Z,69.22
2018-07-30T03:45:05.244Z,70.12
2018-07-30T03:47:34.032Z,70.26
2018-07-30T03:50:02.688Z,70.44
2018-07-30T03:52:31.286Z,70.73
2018-07-30T03:54:59.922Z,70.96
2018-07-30T03:57:28.469Z,70.88
2018-07-30T03:59:57.073Z,71.05
2018-07-30T04:02:26.518Z,71.55
2018-07-30T04:04:55.080Z,71.41
2018-07-30T04:07:25.989Z,71.77
2018-07-30T04:09:54.611Z,71.74
2018-07-30T04:12:23.255Z,71.03
2018-07-30T04:14:51.901Z,70.59
2018-07-30T04:17:20.492Z,70.51
2018-07-30T04:19:49.080Z,71.14
2018-07-30T04:22:17.774Z,70.46
2018-07-30T04:24:46.378Z,70.24
2018-07-30T04:27:15.279Z,70.46
2018-07-30T04:29:43.873Z,70.17
2018-07-30T04:32:12.445Z,69.13
2018-07-30T04:34:41.042Z,69.13
2018-07-30T04:37:09.628Z,69.91
2018-07-30T04:39:38.322Z,69.27
2018-07-30T04:42:06.937Z,69.55
2018-07-30T04:44:35.589Z,69.21
2018-07-30T04:47:04.195Z,68.97
2018-07-30T04:49:32.800Z,69.07
2018-07-30T04:52:01.441Z,68.58
2018-07-30T04:54:30.008Z,68.97
2018-07-30T04:56:58.602Z,68.86
2018-07-30T04:59:27.193Z,69.53
2018-07-30T05:01:55.761Z,69.39
2018-07-30T05:04:24.332Z,69.07
2018-07-30T05:06:52.892Z,68.77
2018-07-30T05:09:21.544Z,69.18
2018-07-30T05:11:50.153Z,69.47
2018-07-30T05:14:18.712Z,69.21
2018-07-30T05:16:47.276Z,68.71
2018-07-30T05:19:15.855Z,68.76
2018-07-30T05:21:44.468Z,67.72
2018-07-30T05:24:13.077Z,67.92
2018-07-30T05:26:41.755Z,68.89
2018-07-30T05:29:11.181Z,68.40
2018-07-30T05:31:39.877Z,68.47
2018-07-30T05:34:08.436Z,68.36
2018-07-30T05:36:37.012Z,67.96
2018-07-30T05:39:08.247Z,68.00
2018-07-30T05:41:36.839Z,67.37
2018-07-30T05:44:05.409Z,66.99
2018-07-30T05:46:33.984Z,66.86
2018-07-30T05:49:02.720Z,66.26
2018-07-30T05:51:31.308Z,65.79
2018-07-30T05:53:59.953Z,65.95
2018-07-30T05:56:28.553Z,66.21
2018-07-30T05:58:57.122Z,66.91
2018-07-30T06:01:25.712Z,68.22
2018-07-30T06:03:54.836Z,67.16
2018-07-30T06:06:24.231Z,65.87
2018-07-30T06:08:52.821Z,65.75
2018-07-30T06:11:28.057Z,65.68
2018-07-30T06:13:56.688Z,65.54
2018-07-30T06:16:25.249Z,64.88
2018-07-30T06:18:53.819Z,64.96
2018-07-30T06:21:22.384Z,65.09
2018-07-30T06:23:51.149Z,64.58
2018-07-30T06:26:19.775Z,64.54
2018-07-30T06:28:48.335Z,63.86
2018-07-30T06:31:16.908Z,63.69
2018-07-30T06:33:45.658Z,62.84
2018-07-30T06:36:14.468Z,62.26
2018-07-30T06:38:43.108Z,62.06
2018-07-30T06:41:11.860Z,62.24
2018-07-30T06:43:40.592Z,62.22
2018-07-30T06:46:09.155Z,63.01
2018-07-30T06:48:37.836Z,62.26
2018-07-30T06:51:06.632Z,61.61
2018-07-30T06:53:35.228Z,60.60
2018-07-30T06:56:03.812Z,59.70
2018-07-30T06:58:32.451Z,58.03
2018-07-30T07:01:01.045Z,58.13
2018-07-30T07:03:29.633Z,57.39
2018-07-30T07:05:58.201Z,56.75
2018-07-30T07:08:26.768Z,56.48
2018-07-30T07:10:55.396Z,56.22
2018-07-30T07:13:24.196Z,56.36
2018-07-30T07:15:52.795Z,56.23
2018-07-30T07:18:21.548Z,55.96
2018-07-30T07:20:50.232Z,54.90
2018-07-30T07:23:18.677Z,53.64
2018-07-30T07:25:47.263Z,55.23
2018-07-30T07:28:15.878Z,54.54
2018-07-30T07:30:44.531Z,54.38
2018-07-30T07:33:13.345Z,53.22
2018-07-30T07:35:41.928Z,52.28
2018-07-30T07:38:10.516Z,52.34
2018-07-30T07:40:39.142Z,52.65
2018-07-30T07:43:07.800Z,52.97
2018-07-30T07:45:36.364Z,53.07
2018-07-30T07:48:04.969Z,52.27
2018-07-30T07:50:33.635Z,52.06
2018-07-30T07:53:02.144Z,52.30
2018-07-30T07:55:30.695Z,52.75
2018-07-30T07:57:59.285Z,51.77
2018-07-30T08:00:27.944Z,51.80
2018-07-30T08:02:57.302Z,50.94
2018-07-30T08:05:26.276Z,51.58
2018-07-30T08:07:55.667Z,51.17
2018-07-30T08:10:24.426Z,51.45
2018-07-30T08:12:53.116Z,51.35
2018-07-30T08:15:21.756Z,50.37
2018-07-30T08:17:50.448Z,50.62
2018-07-30T08:20:19.068Z,51.48
2018-07-30T08:22:47.697Z,51.67
2018-07-30T08:25:16.331Z,50.81
2018-07-30T08:27:44.931Z,50.11
2018-07-30T08:30:13.563Z,50.49
2018-07-30T08:32:42.154Z,51.02
2018-07-30T08:35:10.841Z,51.21
2018-07-30T08:37:39.417Z,50.35
2018-07-30T08:40:08.637Z,50.68
2018-07-30T08:42:37.199Z,49.73
2018-07-30T08:45:06.595Z,50.69
2018-07-30T08:47:35.403Z,49.90
2018-07-30T08:50:04.235Z,50.57
2018-07-30T08:52:32.841Z,50.65
2018-07-30T08:55:01.451Z,51.73
2018-07-30T08:57:30.112Z,51.18
2018-07-30T08:59:58.701Z,51.26
2018-07-30T09:02:27.311Z,51.44
2018-07-30T09:04:55.906Z,51.53
2018-07-30T09:07:24.640Z,51.80
2018-07-30T09:09:53.210Z,51.74
2018-07-30T09:12:21.826Z,50.79
2018-07-30T09:14:50.407Z,50.82
2018-07-30T09:17:19.018Z,51.86
2018-07-30T09:19:47.633Z,53.30
2018-07-30T09:22:16.303Z,53.98
2018-07-30T09:24:44.868Z,55.08
2018-07-30T09:27:13.434Z,56.08
2018-07-30T09:29:42.029Z,56.68
2018-07-30T09:32:10.606Z,56.84
2018-07-30T09:34:39.216Z,55.24
2018-07-30T09:37:07.952Z,55.61
2018-07-30T09:39:36.619Z,54.63
2018-07-30T09:42:05.204Z,54.22
2018-07-30T09:44:33.813Z,52.41
2018-07-30T09:47:02.763Z,50.04
2018-07-30T09:49:31.538Z,50.11
2018-07-30T09:52:00.152Z,51.11
2018-07-30T09:54:28.824Z,51.90
2018-07-30T09:56:57.415Z,52.78
2018-07-30T09:59:26.037Z,51.77
2018-07-30T10:01:54.619Z,53.11
2018-07-30T10:04:23.312Z,52.42
2018-07-30T10:06:51.870Z,53.09
2018-07-30T10:09:25.543Z,53.73
2018-07-30T10:11:55.935Z,52.21
2018-07-30T10:14:25.491Z,52.83
2018-07-30T10:16:54.715Z,53.19
2018-07-30T10:19:28.923Z,53.40
2018-07-30T10:21:57.519Z,53.14
2018-07-30T10:24:26.392Z,57.88
2018-07-30T10:26:55.071Z,58.93
2018-07-30T10:29:23.756Z,59.67
2018-07-30T10:31:52.396Z,59.97
2018-07-30T10:37:13.036Z,61.92
2018-07-30T10:39:41.832Z,62.05
2018-07-30T10:42:10.644Z,64.25
2018-07-30T10:44:39.329Z,65.32
2018-07-30T10:47:07.951Z,63.01
2018-07-30T10:49:36.519Z,61.51
2018-07-30T10:52:05.134Z,63.72
2018-07-30T10:54:33.692Z,65.54
2018-07-30T10:57:02.325Z,67.37
2018-07-30T10:59:31.005Z,67.54
2018-07-30T11:01:59.612Z,68.61
2018-07-30T11:04:28.272Z,67.26
2018-07-30T11:06:56.961Z,68.08
2018-07-30T11:09:26.775Z,67.98
2018-07-30T11:11:54.370Z,68.94
2018-07-30T11:14:23.176Z,67.33
2018-07-30T11:16:52.148Z,68.89
2018-07-30T11:19:20.833Z,70.50
2018-07-30T11:21:49.552Z,71.13
2018-07-30T11:24:18.195Z,70.34
2018-07-30T11:26:46.763Z,70.88
2018-07-30T11:29:15.402Z,70.49
2018-07-30T11:31:43.995Z,71.12
2018-07-30T11:34:13.389Z,71.90
2018-07-30T11:36:44.716Z,71.35
2018-07-30T11:39:13.974Z,70.72
2018-07-30T11:41:42.877Z,70.07
2018-07-30T11:44:11.452Z,69.77
2018-07-30T11:46:40.085Z,70.11
2018-07-30T11:49:09.106Z,71.31
2018-07-30T11:51:38.373Z,71.02
2018-07-30T11:54:07.267Z,71.24
2018-07-30T11:56:36.202Z,71.41
2018-07-30T11:59:05.061Z,72.07
2018-07-30T12:01:33.871Z,72.78
2018-07-30T12:04:02.719Z,73.00
2018-07-30T12:06:32.224Z,73.15
2018-07-30T12:09:01.071Z,73.32
2018-07-30T12:11:30.130Z,73.19
2018-07-30T12:13:58.863Z,74.07
2018-07-30T12:16:27.537Z,74.13
2018-07-30T12:18:56.144Z,74.60
2018-07-30T12:21:26.212Z,73.54
2018-07-30T12:23:54.873Z,73.12
2018-07-30T12:26:24.156Z,73.12
2018-07-30T12:28:52.827Z,73.25
2018-07-30T12:31:21.636Z,73.68
2018-07-30T12:33:50.302Z,74.74
2018-07-30T12:36:20.549Z,74.59
2018-07-30T12:38:49.197Z,74.53
2018-07-30T12:41:18.030Z,74.43
2018-07-30T12:43:46.664Z,75.22
2018-07-30T12:46:15.313Z,75.09
2018-07-30T12:48:44.280Z,74.05
2018-07-30T12:51:13.509Z,74.80
2018-07-30T12:53:42.446Z,74.90
2018-07-30T12:56:11.237Z,74.75
2018-07-30T12:58:39.964Z,74.40
2018-07-30T13:01:08.613Z,72.68
2018-07-30T13:03:37.492Z,72.03
2018-07-30T13:06:06.215Z,71.74
2018-07-30T13:08:34.986Z,71.93
2018-07-30T13:11:03.678Z,70.44
2018-07-30T13:13:32.351Z,69.67
2018-07-30T13:16:01.002Z,68.25
2018-07-30T13:18:29.687Z,66.75
2018-07-30T13:20:58.377Z,68.25
2018-07-30T13:23:27.224Z,67.10
2018-07-30T13:25:55.796Z,66.44
2018-07-30T13:28:24.421Z,65.11
2018-07-30T13:30:52.991Z,68.32
2018-07-30T13:33:25.976Z,67.24
2018-07-30T13:36:00.861Z,65.47
2018-07-30T13:38:29.644Z,65.51
2018-07-30T13:40:58.252Z,64.08
2018-07-30T13:43:27.379Z,64.10
2018-07-30T13:45:55.952Z,62.82
2018-07-30T13:48:24.599Z,64.33
2018-07-30T13:50:58.736Z,64.00
2018-07-30T13:53:27.393Z,62.20
2018-07-30T13:55:55.949Z,60.61
2018-07-30T13:58:24.620Z,59.32
2018-07-30T14:00:53.266Z,58.14
2018-07-30T14:03:21.860Z,57.21
2018-07-30T14:05:50.448Z,57.14
2018-07-30T14:08:19.181Z,56.31
2018-07-30T14:10:47.726Z,56.36
2018-07-30T14:13:26.561Z,57.29
2018-07-30T14:15:55.146Z,57.47
2018-07-30T14:18:23.756Z,57.85
2018-07-30T14:20:52.348Z,57.41
2018-07-30T14:23:20.949Z,56.71
2018-07-30T14:25:51.284Z,57.48
2018-07-30T14:28:20.385Z,57.12
2018-07-30T14:30:49.213Z,56.88
2018-07-30T14:33:17.795Z,56.20
2018-07-30T14:35:46.435Z,57.25
2018-07-30T14:38:15.012Z,55.11
2018-07-30T14:40:43.592Z,53.99
2018-07-30T14:43:12.232Z,51.46
2018-07-30T14:45:41.011Z,51.44
2018-07-30T14:48:09.665Z,53.06
2018-07-30T14:50:38.280Z,53.90
2018-07-30T14:53:06.920Z,55.69
2018-07-30T14:55:35.527Z,60.39
2018-07-30T14:58:04.137Z,62.49
2018-07-30T15:00:32.722Z,62.62
2018-07-30T15:03:01.292Z,62.74
2018-07-30T15:05:30.168Z,62.96
2018-07-30T15:07:58.728Z,62.66
2018-07-30T15:10:27.408Z,63.35
2018-07-30T15:12:56.171Z,63.84
2018-07-30T15:15:26.886Z,63.41
2018-07-30T15:17:57.663Z,63.10
2018-07-30T15:20:29.406Z,63.47
2018-07-30T15:23:00.103Z,63.66
2018-07-30T15:25:30.905Z,63.63
2018-07-30T15:28:00.189Z,63.64
2018-07-30T15:30:31.533Z,62.79
2018-07-30T15:33:03.199Z,62.93
2018-07-30T15:35:33.577Z,62.90
2018-07-30T15:38:04.719Z,64.04
2018-07-30T15:40:35.816Z,63.53
2018-07-30T15:43:07.330Z,63.74
2018-07-30T15:45:38.519Z,63.26
2018-07-30T15:48:10.009Z,62.31
2018-07-30T15:50:41.660Z,62.79
2018-07-30T15:53:12.768Z,62.46
2018-07-30T15:55:42.738Z,62.88
2018-07-30T15:58:11.516Z,62.78
2018-07-30T16:00:40.230Z,63.76
2018-07-30T16:03:08.912Z,63.93
2018-07-30T16:05:37.889Z,63.80
2018-07-30T16:08:06.469Z,64.42
2018-07-30T16:10:35.167Z,63.83
2018-07-30T16:13:04.058Z,64.85
2018-07-30T16:15:32.679Z,65.32
2018-07-30T16:18:02.067Z,65.08
2018-07-30T16:20:31.783Z,64.17
2018-07-30T16:23:00.371Z,64.04
2018-07-30T16:25:29.089Z,63.96
2018-07-30T16:27:57.679Z,64.37
2018-07-30T16:30:26.430Z,64.31
2018-07-30T16:32:55.044Z,64.03
2018-07-30T16:35:24.043Z,63.32
2018-07-30T16:37:52.836Z,62.89
2018-07-30T16:40:21.488Z,64.03
2018-07-30T16:42:50.214Z,63.61
2018-07-30T16:45:18.839Z,63.67
2018-07-30T16:47:47.475Z,63.38
2018-07-30T16:50:16.091Z,63.96
2018-07-30T16:52:44.690Z,64.55
2018-07-30T16:55:13.299Z,64.37
2018-07-30T16:57:42.008Z,65.56
2018-07-30T17:00:11.917Z,65.68
2018-07-30T17:02:40.784Z,65.47
2018-07-30T17:05:09.737Z,66.29
2018-07-30T17:07:38.737Z,67.85
2018-07-30T17:10:07.365Z,69.48
2018-07-30T17:12:36.072Z,69.25
2018-07-30T17:15:04.803Z,69.96
2018-07-30T17:17:33.389Z,70.03
2018-07-30T17:20:02.014Z,69.99
2018-07-30T17:22:30.589Z,69.98
2018-07-30T17:24:59.216Z,69.88
2018-07-30T17:27:27.791Z,70.11
2018-07-30T17:29:56.419Z,70.23
2018-07-30T17:32:25.099Z,69.83
2018-07-30T17:34:53.680Z,70.65
2018-07-30T17:37:22.330Z,69.77
2018-07-30T17:39:50.943Z,70.47
2018-07-30T17:42:19.710Z,69.70
2018-07-30T17:44:48.296Z,70.32
2018-07-30T17:47:16.875Z,70.38
2018-07-30T17:49:45.498Z,70.19
2018-07-30T17:52:14.073Z,69.92
2018-07-30T17:54:43.016Z,70.58
2018-07-30T17:57:11.683Z,71.42
2018-07-30T17:59:41.132Z,71.41
2018-07-30T18:02:09.806Z,71.61
2018-07-30T18:04:38.487Z,71.48
2018-07-30T18:07:13.896Z,71.51
2018-07-30T18:09:42.652Z,71.77
2018-07-30T18:12:12.508Z,71.80
2018-07-30T18:14:41.165Z,71.90
2018-07-30T18:17:10.764Z,71.45
2018-07-30T18:19:39.338Z,71.22
2018-07-30T18:22:08.050Z,71.45
2018-07-30T18:24:36.680Z,71.17
2018-07-30T18:27:05.314Z,71.57
2018-07-30T18:29:35.545Z,72.04
2018-07-30T18:32:04.222Z,71.81
2018-07-30T18:34:32.812Z,72.37
2018-07-30T18:37:01.427Z,72.63
2018-07-30T18:39:30.035Z,74.44
2018-07-30T18:41:58.828Z,74.94
2018-07-30T18:44:40.371Z,74.52
2018-07-30T18:47:08.991Z,73.11
2018-07-30T18:49:37.590Z,73.44
2018-07-30T18:52:06.232Z,72.34
2018-07-30T18:54:34.817Z,72.23
2018-07-30T18:57:03.554Z,71.92
2018-07-30T18:59:32.216Z,72.09
2018-07-30T19:02:00.829Z,72.13
2018-07-30T19:04:29.529Z,71.36
2018-07-30T19:06:58.334Z,70.75
2018-07-30T19:09:28.316Z,70.29
2018-07-30T19:11:56.926Z,70.18
2018-07-30T19:14:25.726Z,71.08
2018-07-30T19:16:55.537Z,70.67
2018-07-30T19:19:25.081Z,71.08
2018-07-30T19:21:53.781Z,70.63
2018-07-30T19:24:23.394Z,70.74
2018-07-30T19:26:52.967Z,71.23
2018-07-30T19:29:22.641Z,71.59
2018-07-30T19:31:51.572Z,73.01
2018-07-30T19:34:21.431Z,73.37
2018-07-30T19:36:50.050Z,73.00
2018-07-30T19:39:18.986Z,73.58
2018-07-30T19:41:47.664Z,74.12
2018-07-30T19:44:16.885Z,73.96
2018-07-30T19:46:45.423Z,73.39
2018-07-30T19:49:13.997Z,73.83
2018-07-30T19:51:42.737Z,74.17
2018-07-30T19:54:11.378Z,74.70
2018-07-30T19:56:40.365Z,74.34
2018-07-30T19:59:09.165Z,74.64
2018-07-30T20:01:37.755Z,74.59
2018-07-30T20:04:06.377Z,75.01
2018-07-30T20:06:35.986Z,75.48
2018-07-30T20:09:07.945Z,74.47
2018-07-30T20:11:36.596Z,74.39
2018-07-30T20:14:05.211Z,73.13
2018-07-30T20:16:34.164Z,73.01
2018-07-30T20:19:02.844Z,73.33
2018-07-30T20:21:31.730Z,74.05
2018-07-30T20:24:00.321Z,73.65
2018-07-30T20:26:29.306Z,74.24
2018-07-30T20:28:57.997Z,73.87
2018-07-30T20:31:27.935Z,74.08
2018-07-30T20:33:58.047Z,73.76
2018-07-30T20:36:26.629Z,72.85
2018-07-30T20:38:55.359Z,72.88
2018-07-30T20:41:24.811Z,71.83
2018-07-30T20:43:53.945Z,73.13
2018-07-30T20:46:23.139Z,73.75
2018-07-30T20:48:51.907Z,74.51
2018-07-30T20:51:20.543Z,73.82
2018-07-30T20:53:49.135Z,73.71
2018-07-30T20:56:18.459Z,72.96
2018-07-30T20:58:47.049Z,72.53
2018-07-30T21:01:16.013Z,72.34
2018-07-30T21:03:44.670Z,73.12
2018-07-30T21:06:13.289Z,73.02
2018-07-30T21:08:41.888Z,71.95
2018-07-30T21:11:10.956Z,74.05
2018-07-30T21:13:39.618Z,76.75
2018-07-30T21:16:08.238Z,75.27
2018-07-30T21:18:37.551Z,74.92
2018-07-30T21:21:06.265Z,74.71
2018-07-30T21:23:34.887Z,73.55
2018-07-30T21:26:03.496Z,72.91
2018-07-30T21:28:32.176Z,72.88
2018-07-30T21:31:01.729Z,72.77
2018-07-30T21:33:30.499Z,72.14
2018-07-30T21:35:59.104Z,71.76
2018-07-30T21:38:27.856Z,72.09
2018-07-30T21:40:56.468Z,72.34
2018-07-30T21:43:25.300Z,71.37
2018-07-30T21:45:53.873Z,70.86
2018-07-30T21:48:22.502Z,70.18
2018-07-30T21:50:51.067Z,70.74
2018-07-30T21:53:19.732Z,70.26
2018-07-30T21:55:48.345Z,70.13
2018-07-30T21:58:17.135Z,69.84
2018-07-30T22:00:50.912Z,69.59
2018-07-30T22:03:19.676Z,69.76
2018-07-30T22:05:53.067Z,69.34
2018-07-30T22:08:22.463Z,69.00
2018-07-30T22:10:51.079Z,69.17
2018-07-30T22:13:19.708Z,68.72
2018-07-30T22:15:48.671Z,69.03
2018-07-30T22:18:17.512Z,69.20
2018-07-30T22:20:46.528Z,69.06
2018-07-30T22:23:15.621Z,69.63
2018-07-30T22:25:44.215Z,70.08
2018-07-30T22:28:12.802Z,70.02
2018-07-30T22:30:41.473Z,69.57
2018-07-30T22:33:11.020Z,69.62
2018-07-30T22:35:39.635Z,69.65
2018-07-30T22:38:08.257Z,70.17
2018-07-30T22:40:37.515Z,69.73
2018-07-30T22:43:06.787Z,69.73
2018-07-30T22:45:35.373Z,69.27
2018-07-30T22:48:04.136Z,69.16
2018-07-30T22:50:32.686Z,69.14
2018-07-30T22:53:01.313Z,69.31
2018-07-30T22:55:30.049Z,69.35
2018-07-30T22:57:58.638Z,68.89
2018-07-30T23:00:27.265Z,68.97
2018-07-30T23:02:55.836Z,69.13
2018-07-30T23:05:24.397Z,69.13
2018-07-30T23:07:53.041Z,69.44
2018-07-30T23:10:21.666Z,68.76
2018-07-30T23:12:50.300Z,68.76
2018-07-30T23:15:18.961Z,68.75
2018-07-30T23:17:47.597Z,68.53
2018-07-30T23:20:16.504Z,68.76
2018-07-30T23:22:45.096Z,69.15
2018-07-30T23:25:14.565Z,69.00
2018-07-30T23:27:43.251Z,69.32
2018-07-30T23:30:11.987Z,70.53
2018-07-30T23:32:40.649Z,70.97
2018-07-30T23:35:09.351Z,70.15
2018-07-30T23:37:38.130Z,70.26
2018-07-30T23:40:07.156Z,70.09
2018-07-30T23:42:35.936Z,70.52
2018-07-30T23:45:04.681Z,70.01
2018-07-30T23:47:33.260Z,69.21
2018-07-30T23:50:02.041Z,70.25
2018-07-30T23:52:30.764Z,70.36
2018-07-30T23:54:59.352Z,70.58
2018-07-30T23:57:34.059Z,72.03
